createdAt,value
2024-03-18T00:03:07.125Z,5.10
2024-03-18T00:06:00.533Z,3.70
2024-03-18T00:08:53.249Z,3.90
2024-03-18T00:11:45.888Z,3.70
2024-03-18T00:14:39.191Z,2.60
2024-03-18T00:17:31.977Z,2.60
2024-03-18T00:20:25.805Z,3.00
2024-03-18T00:23:18.842Z,4.60
2024-03-18T00:26:11.728Z,3.10
2024-03-18T00:29:04.995Z,2.30
2024-03-18T00:31:58.047Z,3.70
2024-03-18T00:34:51.763Z,3.60
2024-03-18T00:37:44.914Z,3.50
2024-03-18T00:40:37.651Z,1.90
2024-03-18T00:43:30.601Z,2.90
2024-03-18T00:46:23.854Z,3.40
2024-03-18T00:49:17.332Z,2.90
2024-03-18T00:52:10.271Z,3.80
2024-03-18T00:55:05.171Z,1.90
2024-03-18T00:57:58.819Z,3.50
2024-03-18T01:00:51.629Z,3.40
2024-03-18T01:03:44.869Z,3.80
2024-03-18T01:06:37.957Z,3.20
2024-03-18T01:09:31.160Z,1.70
2024-03-18T01:12:24.321Z,3.60
2024-03-18T01:15:17.833Z,4.20
2024-03-18T01:18:10.932Z,3.00
2024-03-18T01:21:03.551Z,4.60
2024-03-18T01:23:56.302Z,3.70
2024-03-18T01:26:49.224Z,3.90
2024-03-18T01:29:43.002Z,4.10
2024-03-18T01:32:35.950Z,3.80
2024-03-18T01:35:30.730Z,3.40
2024-03-18T01:38:23.723Z,4.60
2024-03-18T01:41:16.713Z,3.60
2024-03-18T01:44:11.135Z,4.20
2024-03-18T01:47:03.830Z,4.20
2024-03-18T01:49:57.955Z,4.70
2024-03-18T01:52:50.977Z,3.60
2024-03-18T01:55:46.827Z,4.70
2024-03-18T01:58:42.819Z,5.10
2024-03-18T02:01:35.781Z,8.20
2024-03-18T02:04:29.137Z,4.00
2024-03-18T02:07:31.176Z,4.20
2024-03-18T02:10:24.684Z,3.80
2024-03-18T02:13:18.148Z,3.30
2024-03-18T02:16:11.965Z,3.60
2024-03-18T02:19:07.014Z,3.10
2024-03-18T02:22:07.954Z,4.20
2024-03-18T02:25:12.764Z,4.20
2024-03-18T02:28:10.875Z,4.30
2024-03-18T02:31:13.509Z,4.80
2024-03-18T02:34:09.026Z,7.00
2024-03-18T02:37:11.533Z,5.80
2024-03-18T02:40:14.030Z,5.10
2024-03-18T02:43:08.893Z,4.20
2024-03-18T02:46:14.081Z,6.40
2024-03-18T02:49:13.108Z,3.90
2024-03-18T02:52:14.936Z,4.80
2024-03-18T02:55:12.333Z,4.10
2024-03-18T02:58:09.630Z,5.50
2024-03-18T03:01:03.289Z,5.20
2024-03-18T03:04:01.169Z,4.40
2024-03-18T03:07:00.220Z,4.20
2024-03-18T03:10:07.409Z,4.40
2024-03-18T03:13:01.432Z,4.30
2024-03-18T03:16:01.854Z,3.20
2024-03-18T03:19:01.036Z,3.00
2024-03-18T03:22:10.641Z,2.90
2024-03-18T03:25:08.848Z,3.60
2024-03-18T03:28:10.443Z,18.40
2024-03-18T03:31:17.081Z,15.40
2024-03-18T03:34:13.484Z,16.80
2024-03-18T03:37:08.554Z,5.70
2024-03-18T03:40:04.669Z,5.10
2024-03-18T03:43:01.535Z,4.00
2024-03-18T03:46:05.913Z,3.70
2024-03-18T03:49:01.924Z,20.40
2024-03-18T03:51:57.899Z,4.90
2024-03-18T03:54:51.477Z,3.20
2024-03-18T03:57:47.135Z,2.20
2024-03-18T04:00:48.087Z,2.20
2024-03-18T04:03:49.100Z,2.30
2024-03-18T04:06:49.141Z,2.10
2024-03-18T04:09:49.207Z,1.60
2024-03-18T04:12:49.772Z,1.50
2024-03-18T04:15:48.555Z,2.20
2024-03-18T04:18:46.048Z,29.40
2024-03-18T04:21:42.665Z,11.40
2024-03-18T04:24:39.244Z,4.00
2024-03-18T04:27:38.695Z,2.50
2024-03-18T04:30:43.217Z,3.10
2024-03-18T04:33:42.220Z,3.20
2024-03-18T04:36:41.292Z,5.40
2024-03-18T04:39:36.963Z,4.30
2024-03-18T04:42:35.312Z,2.00
2024-03-18T04:45:41.904Z,3.00
2024-03-18T04:48:38.127Z,3.20
2024-03-18T04:51:35.713Z,3.80
2024-03-18T04:54:30.049Z,5.90
2024-03-18T04:57:30.979Z,5.20
2024-03-18T05:00:29.110Z,5.50
2024-03-18T05:03:24.072Z,5.70
2024-03-18T05:06:20.714Z,4.40
2024-03-18T05:09:19.588Z,5.00
2024-03-18T05:12:16.148Z,4.70
2024-03-18T05:15:16.166Z,4.00
2024-03-18T05:18:12.570Z,3.90
2024-03-18T05:21:15.539Z,4.50
2024-03-18T05:24:11.681Z,4.60
2024-03-18T05:27:10.582Z,5.30
2024-03-18T05:30:08.796Z,6.70
2024-03-18T05:33:09.282Z,6.90
2024-03-18T05:36:10.389Z,4.80
2024-03-18T05:39:04.271Z,5.20
2024-03-18T05:41:57.284Z,5.20
2024-03-18T05:44:56.531Z,5.80
2024-03-18T05:47:50.079Z,6.30
2024-03-18T05:50:48.161Z,6.30
2024-03-18T05:53:42.346Z,5.60
2024-03-18T05:56:41.358Z,5.60
2024-03-18T05:59:41.091Z,5.00
2024-03-18T06:02:35.523Z,7.20
2024-03-18T06:05:28.934Z,8.20
2024-03-18T06:08:22.170Z,7.00
2024-03-18T06:11:15.464Z,10.00
2024-03-18T06:14:11.397Z,8.70
2024-03-18T06:17:05.862Z,8.60
2024-03-18T06:20:00.064Z,9.00
2024-03-18T06:22:54.543Z,8.00
2024-03-18T06:25:58.849Z,8.40
2024-03-18T06:28:52.109Z,7.90
2024-03-18T06:31:46.016Z,7.90
2024-03-18T06:34:42.356Z,9.00
2024-03-18T06:37:40.572Z,8.30
2024-03-18T06:40:33.559Z,8.10
2024-03-18T06:43:26.350Z,6.20
2024-03-18T06:46:19.097Z,6.80
2024-03-18T06:49:12.554Z,7.40
2024-03-18T06:52:07.740Z,9.30
2024-03-18T06:55:01.385Z,7.10
2024-03-18T06:57:54.732Z,6.40
2024-03-18T07:00:47.984Z,6.30
2024-03-18T07:03:41.611Z,6.70
2024-03-18T07:06:34.302Z,5.30
2024-03-18T07:09:26.955Z,5.70
2024-03-18T07:12:19.702Z,6.10
2024-03-18T07:15:17.338Z,6.80
2024-03-18T07:18:10.470Z,5.40
2024-03-18T07:21:03.328Z,5.50
2024-03-18T07:23:56.351Z,6.50
2024-03-18T07:26:49.237Z,6.00
2024-03-18T07:29:41.840Z,6.90
2024-03-18T07:32:35.096Z,4.50
2024-03-18T07:35:27.742Z,4.10
2024-03-18T07:38:25.957Z,4.40
2024-03-18T07:41:19.185Z,5.30
2024-03-18T07:44:12.190Z,7.90
2024-03-18T07:47:05.954Z,5.30
2024-03-18T07:49:59.060Z,5.20
2024-03-18T07:52:51.711Z,4.10
2024-03-18T07:55:44.458Z,4.90
2024-03-18T07:58:37.072Z,5.60
2024-03-18T08:01:30.090Z,3.80
2024-03-18T08:04:22.869Z,4.90
2024-03-18T08:07:16.045Z,4.40
2024-03-18T08:10:10.739Z,5.20
2024-03-18T08:13:03.333Z,5.00
2024-03-18T08:16:00.317Z,3.90
2024-03-18T08:18:53.225Z,4.90
2024-03-18T08:21:45.988Z,4.60
2024-03-18T08:24:39.367Z,5.20
2024-03-18T08:27:33.484Z,4.90
2024-03-18T08:30:26.711Z,6.30
2024-03-18T08:33:25.641Z,5.10
2024-03-18T08:36:22.559Z,4.00
2024-03-18T08:39:15.315Z,4.80
2024-03-18T08:42:08.791Z,4.80
2024-03-18T08:45:01.548Z,4.10
2024-03-18T08:47:54.422Z,4.10
2024-03-18T08:50:47.452Z,4.30
2024-03-18T08:53:44.880Z,4.30
2024-03-18T08:56:39.235Z,6.10
2024-03-18T08:59:32.488Z,5.50
2024-03-18T09:02:25.608Z,5.20
2024-03-18T09:05:19.146Z,4.70
2024-03-18T09:08:11.910Z,4.00
2024-03-18T09:11:05.075Z,4.50
2024-03-18T09:13:57.446Z,4.60
2024-03-18T09:16:50.480Z,3.90
2024-03-18T09:19:43.365Z,4.30
2024-03-18T09:22:36.276Z,4.10
2024-03-18T09:25:32.865Z,4.70
2024-03-18T09:28:26.001Z,3.90
2024-03-18T09:31:19.167Z,6.30
2024-03-18T09:34:11.967Z,4.50
2024-03-18T09:37:05.226Z,4.70
2024-03-18T09:39:58.612Z,5.40
2024-03-18T09:42:51.865Z,5.30
2024-03-18T09:45:45.220Z,4.30
2024-03-18T09:48:38.556Z,5.10
2024-03-18T09:51:36.533Z,6.10
2024-03-18T09:54:29.234Z,6.10
2024-03-18T09:57:27.481Z,6.10
2024-03-18T10:00:21.788Z,6.70
2024-03-18T10:03:21.098Z,4.70
2024-03-18T10:06:15.689Z,7.50
2024-03-18T10:09:08.695Z,6.60
2024-03-18T10:12:01.576Z,6.40
2024-03-18T10:14:54.553Z,7.10
2024-03-18T10:17:47.718Z,7.20
2024-03-18T10:20:40.760Z,7.50
2024-03-18T10:23:37.586Z,5.80
2024-03-18T10:26:33.158Z,6.90
2024-03-18T10:29:25.985Z,5.50
2024-03-18T10:32:28.878Z,5.30
2024-03-18T10:35:27.525Z,5.30
2024-03-18T10:38:26.334Z,6.30
2024-03-18T10:41:22.475Z,7.00
2024-03-18T10:44:21.657Z,5.30
2024-03-18T10:47:17.336Z,7.40
2024-03-18T10:50:17.014Z,5.90
2024-03-18T10:53:19.795Z,6.90
2024-03-18T10:59:04.750Z,6.30
2024-03-18T11:01:57.901Z,4.90
2024-03-18T11:04:51.211Z,7.20
2024-03-18T11:07:47.880Z,5.20
2024-03-18T11:10:42.270Z,5.40
2024-03-18T11:13:39.827Z,6.90
2024-03-18T11:16:36.390Z,7.10
2024-03-18T11:19:31.431Z,5.50
2024-03-18T11:22:24.312Z,4.40
2024-03-18T11:25:23.666Z,5.40
2024-03-18T11:28:17.170Z,5.50
2024-03-18T11:31:12.793Z,6.40
2024-03-18T11:34:11.194Z,5.30
2024-03-18T11:37:06.619Z,4.90
2024-03-18T11:40:00.243Z,6.70
2024-03-18T11:42:53.179Z,5.50
2024-03-18T11:45:54.003Z,7.10
2024-03-18T11:48:47.086Z,5.70
2024-03-18T11:51:44.608Z,6.70
2024-03-18T11:54:41.740Z,7.10
2024-03-18T11:57:35.575Z,5.40
2024-03-18T12:00:28.751Z,5.60
2024-03-18T12:03:23.428Z,7.10
2024-03-18T12:06:16.412Z,5.60
2024-03-18T12:09:12.925Z,7.60
2024-03-18T12:12:09.201Z,6.30
2024-03-18T12:15:02.867Z,6.90
2024-03-18T12:17:55.924Z,6.70
2024-03-18T12:20:54.150Z,6.60
2024-03-18T12:24:04.273Z,7.60
2024-03-18T12:27:14.475Z,6.70
2024-03-18T12:30:20.917Z,7.40
2024-03-18T12:33:16.708Z,5.10
2024-03-18T12:36:14.302Z,5.50
2024-03-18T12:39:11.074Z,5.10
2024-03-18T12:42:04.869Z,5.50
2024-03-18T12:44:59.077Z,5.50
2024-03-18T12:47:53.452Z,5.60
2024-03-18T12:50:47.552Z,5.20
2024-03-18T12:53:40.350Z,5.70
2024-03-18T12:56:33.499Z,6.80
2024-03-18T12:59:26.248Z,6.90
2024-03-18T13:02:21.059Z,6.40
2024-03-18T13:05:15.240Z,5.90
2024-03-18T13:08:12.361Z,6.40
2024-03-18T13:11:07.954Z,4.50
2024-03-18T13:14:00.902Z,5.30
2024-03-18T13:16:57.927Z,6.20
2024-03-18T13:19:51.953Z,5.50
2024-03-18T13:22:44.694Z,5.30
2024-03-18T13:25:38.667Z,5.20
2024-03-18T13:28:31.465Z,7.60
2024-03-18T13:31:24.259Z,6.20
2024-03-18T13:34:18.480Z,5.90
2024-03-18T13:37:11.573Z,6.80
2024-03-18T13:40:05.773Z,6.30
2024-03-18T13:42:59.041Z,9.10
2024-03-18T13:45:56.193Z,7.00
2024-03-18T13:48:49.472Z,5.70
2024-03-18T13:51:42.385Z,10.00
2024-03-18T13:54:35.509Z,6.50
2024-03-18T13:57:28.330Z,8.70
2024-03-18T14:00:25.918Z,5.90
2024-03-18T14:03:18.793Z,9.90
2024-03-18T14:06:13.158Z,6.50
2024-03-18T14:09:08.805Z,5.90
2024-03-18T14:12:02.408Z,6.80
2024-03-18T14:14:55.063Z,7.70
2024-03-18T14:17:49.418Z,6.50
2024-03-18T14:20:42.405Z,6.10
2024-03-18T14:23:35.454Z,7.10
2024-03-18T14:26:28.365Z,6.90
2024-03-18T14:29:21.988Z,6.80
2024-03-18T14:32:16.738Z,7.30
2024-03-18T14:35:16.059Z,8.40
2024-03-18T14:38:09.200Z,6.70
2024-03-18T14:41:06.414Z,6.80
2024-03-18T14:44:00.186Z,7.50
2024-03-18T14:46:52.813Z,6.00
2024-03-18T14:49:45.584Z,7.80
2024-03-18T14:52:38.150Z,8.00
2024-03-18T14:55:31.257Z,6.80
2024-03-18T14:58:24.915Z,6.60
2024-03-18T15:01:20.692Z,7.60
2024-03-18T15:04:13.567Z,7.20
2024-03-18T15:07:07.356Z,7.80
2024-03-18T15:10:00.379Z,7.00
2024-03-18T15:12:53.687Z,7.00
2024-03-18T15:15:46.659Z,6.90
2024-03-18T15:18:40.071Z,8.60
2024-03-18T15:21:33.023Z,7.10
2024-03-18T15:24:39.812Z,6.40
2024-03-18T15:27:48.568Z,8.90
2024-03-18T15:30:43.944Z,12.30
2024-03-18T15:33:36.904Z,9.60
2024-03-18T15:36:30.016Z,8.10
2024-03-18T15:39:23.668Z,7.80
2024-03-18T15:42:16.687Z,8.70
2024-03-18T15:45:12.520Z,6.50
2024-03-18T15:48:05.808Z,7.50
2024-03-18T15:50:59.182Z,7.60
2024-03-18T15:53:52.385Z,11.50
2024-03-18T15:56:54.835Z,7.20
2024-03-18T15:59:54.352Z,6.90
2024-03-18T16:02:50.960Z,8.60
2024-03-18T16:05:44.295Z,7.50
2024-03-18T16:08:40.540Z,9.60
2024-03-18T16:11:39.927Z,8.80
2024-03-18T16:14:33.587Z,8.20
2024-03-18T16:17:26.544Z,8.30
2024-03-18T16:20:19.942Z,10.40
2024-03-18T16:23:13.151Z,11.80
2024-03-18T16:26:06.855Z,13.00
2024-03-18T16:28:59.637Z,12.30
2024-03-18T16:31:52.948Z,9.60
2024-03-18T16:34:45.860Z,8.00
2024-03-18T16:37:38.936Z,11.30
2024-03-18T16:40:31.968Z,8.80
2024-03-18T16:43:25.136Z,10.80
2024-03-18T16:46:17.862Z,8.60
2024-03-18T16:49:11.000Z,8.80
2024-03-18T16:52:04.377Z,8.70
2024-03-18T16:54:57.283Z,11.60
2024-03-18T16:57:50.266Z,14.00
2024-03-18T17:00:45.077Z,13.90
2024-03-18T17:03:38.271Z,11.60
2024-03-18T17:06:31.100Z,11.50
2024-03-18T17:09:24.175Z,10.60
2024-03-18T17:12:17.296Z,10.20
2024-03-18T17:15:11.981Z,15.70
2024-03-18T17:18:05.980Z,11.80
2024-03-18T17:20:59.400Z,10.60
2024-03-18T17:23:54.611Z,12.80
2024-03-18T17:26:47.812Z,12.60
2024-03-18T17:29:41.381Z,12.70
2024-03-18T17:32:34.195Z,13.10
2024-03-18T17:35:44.967Z,12.90
2024-03-18T17:38:41.145Z,13.20
2024-03-18T17:41:34.195Z,14.90
2024-03-18T17:44:27.922Z,13.70
2024-03-18T17:47:21.156Z,13.90
2024-03-18T17:50:14.981Z,15.80
2024-03-18T17:53:07.887Z,15.50
2024-03-18T17:56:01.190Z,13.50
2024-03-18T17:58:54.356Z,19.10
2024-03-18T18:01:47.263Z,17.30
2024-03-18T18:04:40.481Z,20.00
2024-03-18T18:07:33.404Z,18.80
2024-03-18T18:10:26.772Z,18.60
2024-03-18T18:13:19.739Z,15.90
2024-03-18T18:16:14.130Z,16.80
2024-03-18T18:19:07.310Z,16.80
2024-03-18T18:22:00.599Z,18.30
2024-03-18T18:24:58.369Z,15.30
2024-03-18T18:27:53.598Z,16.40
2024-03-18T18:30:46.581Z,21.80
2024-03-18T18:33:40.310Z,16.40
2024-03-18T18:36:33.592Z,16.20
2024-03-18T18:39:27.217Z,13.70
2024-03-18T18:42:20.099Z,18.20
2024-03-18T18:45:14.642Z,14.30
2024-03-18T18:48:09.555Z,15.20
2024-03-18T18:51:03.717Z,22.00
2024-03-18T18:53:56.768Z,28.70
2024-03-18T18:56:49.702Z,22.30
2024-03-18T18:59:43.394Z,17.50
2024-03-18T19:02:37.169Z,14.00
2024-03-18T19:05:31.486Z,16.90
2024-03-18T19:08:24.526Z,16.30
2024-03-18T19:11:17.544Z,17.20
2024-03-18T19:14:13.954Z,15.80
2024-03-18T19:17:08.358Z,20.20
2024-03-18T19:20:01.610Z,18.90
2024-03-18T19:22:54.835Z,18.70
2024-03-18T19:25:54.578Z,22.60
2024-03-18T19:28:48.878Z,48.40
2024-03-18T19:31:43.442Z,28.40
2024-03-18T19:34:36.671Z,21.40
2024-03-18T19:37:30.190Z,20.20
2024-03-18T19:40:26.323Z,20.40
2024-03-18T19:43:21.873Z,21.40
2024-03-18T19:46:16.041Z,16.50
2024-03-18T19:49:09.016Z,13.80
2024-03-18T19:52:01.967Z,14.70
2024-03-18T19:54:55.068Z,15.90
2024-03-18T19:57:49.108Z,13.50
2024-03-18T20:00:42.054Z,14.70
2024-03-18T20:03:35.352Z,40.60
2024-03-18T20:06:28.958Z,17.40
2024-03-18T20:09:22.245Z,13.50
2024-03-18T20:12:15.414Z,10.90
2024-03-18T20:15:12.791Z,12.60
2024-03-18T20:18:06.601Z,12.20
2024-03-18T20:21:00.080Z,12.60
2024-03-18T20:23:52.985Z,13.70
2024-03-18T20:26:47.152Z,13.40
2024-03-18T20:29:40.221Z,12.70
2024-03-18T20:32:32.836Z,13.00
2024-03-18T20:35:26.218Z,12.50
2024-03-18T20:38:20.649Z,11.70
2024-03-18T20:41:14.324Z,11.20
2024-03-18T20:44:07.243Z,13.30
2024-03-18T20:47:05.199Z,12.60
2024-03-18T20:49:58.115Z,11.50
2024-03-18T20:52:51.809Z,10.70
2024-03-18T20:55:48.208Z,10.50
2024-03-18T20:58:41.595Z,13.40
2024-03-18T21:01:35.520Z,14.80
2024-03-18T21:04:30.676Z,21.70
2024-03-18T21:07:24.130Z,16.40
2024-03-18T21:10:19.100Z,15.30
2024-03-18T21:13:12.156Z,14.00
2024-03-18T21:16:08.559Z,13.20
2024-03-18T21:19:01.731Z,11.50
2024-03-18T21:21:54.698Z,13.40
2024-03-18T21:24:47.807Z,13.50
2024-03-18T21:27:41.307Z,11.90
2024-03-18T21:30:34.082Z,14.10
2024-03-18T21:33:27.635Z,11.10
2024-03-18T21:36:20.205Z,10.00
2024-03-18T21:39:14.698Z,12.20
2024-03-18T21:42:08.224Z,11.70
2024-03-18T21:45:01.261Z,12.50
2024-03-18T21:47:54.314Z,11.20
2024-03-18T21:50:48.226Z,12.60
2024-03-18T21:53:41.998Z,15.50
2024-03-18T21:56:34.584Z,19.70
2024-03-18T21:59:28.330Z,14.40
2024-03-18T22:02:21.137Z,11.30
2024-03-18T22:05:14.463Z,10.60
2024-03-18T22:08:09.340Z,11.30
2024-03-18T22:11:02.838Z,13.00
2024-03-18T22:13:55.961Z,15.10
2024-03-18T22:16:48.491Z,12.40
2024-03-18T22:19:41.015Z,11.80
2024-03-18T22:22:35.905Z,12.00
2024-03-18T22:25:28.850Z,12.60
2024-03-18T22:28:22.009Z,25.80
2024-03-18T22:31:19.822Z,18.40
2024-03-18T22:34:13.604Z,12.80
2024-03-18T22:37:07.162Z,14.20
2024-03-18T22:39:59.908Z,15.40
2024-03-18T22:42:52.690Z,12.00
2024-03-18T22:45:46.442Z,13.70
2024-03-18T22:48:39.546Z,13.80
2024-03-18T22:51:33.635Z,13.70
2024-03-18T22:54:26.472Z,13.80
2024-03-18T22:57:19.666Z,14.00
2024-03-18T23:00:18.834Z,13.30
2024-03-18T23:03:14.541Z,14.20
2024-03-18T23:06:07.988Z,13.70
2024-03-18T23:09:01.070Z,16.40
2024-03-18T23:11:53.548Z,17.10
2024-03-18T23:14:46.395Z,15.80
2024-03-18T23:17:39.362Z,15.10
2024-03-18T23:20:32.770Z,15.60
2024-03-18T23:23:25.965Z,15.90
2024-03-18T23:26:19.176Z,16.40
2024-03-18T23:29:13.491Z,14.50
2024-03-18T23:32:07.677Z,14.10
2024-03-18T23:35:00.659Z,16.10
2024-03-18T23:37:53.864Z,16.20
2024-03-18T23:40:49.550Z,14.70
2024-03-18T23:43:42.620Z,14.30
2024-03-18T23:46:36.948Z,16.60
2024-03-18T23:49:30.077Z,16.20
2024-03-18T23:52:23.122Z,15.10
2024-03-18T23:55:16.158Z,15.10
2024-03-18T23:58:10.196Z,15.00
